sensor_id;sensor_type;location;lat;lon;timestamp;temperature;humidity
63202;DHT22;49296;48.188;11.566;2023-06-10T00:02:23;21.44;53.94
63202;DHT22;49296;48.188;11.566;2023-06-10T00:04:50;21.44;54.06
63202;DHT22;49296;48.188;11.566;2023-06-10T00:07:18;21.40;54.15
63202;DHT22;49296;48.188;11.566;2023-06-10T00:09:44;21.37;54.46
63202;DHT22;49296;48.188;11.566;2023-06-10T00:12:11;21.29;54.56
63202;DHT22;49296;48.188;11.566;2023-06-10T00:14:39;21.19;54.92
63202;DHT22;49296;48.188;11.566;2023-06-10T00:17:06;21.20;54.96
63202;DHT22;49296;48.188;11.566;2023-06-10T00:19:36;21.23;54.94
63202;DHT22;49296;48.188;11.566;2023-06-10T00:22:06;21.22;55.03
63202;DHT22;49296;48.188;11.566;2023-06-10T00:24:33;21.15;55.21
63202;DHT22;49296;48.188;11.566;2023-06-10T00:27:00;21.19;55.29
63202;DHT22;49296;48.188;11.566;2023-06-10T00:29:29;21.10;55.38
63202;DHT22;49296;48.188;11.566;2023-06-10T00:31:56;21.06;55.58
63202;DHT22;49296;48.188;11.566;2023-06-10T00:34:23;20.96;55.88
63202;DHT22;49296;48.188;11.566;2023-06-10T00:36:51;20.84;56.09
63202;DHT22;49296;48.188;11.566;2023-06-10T00:39:18;20.81;56.27
63202;DHT22;49296;48.188;11.566;2023-06-10T00:41:44;20.78;56.29
63202;DHT22;49296;48.188;11.566;2023-06-10T00:44:11;20.74;56.53
63202;DHT22;49296;48.188;11.566;2023-06-10T00:46:38;20.57;56.84
63202;DHT22;49296;48.188;11.566;2023-06-10T00:49:05;20.51;57.07
63202;DHT22;49296;48.188;11.566;2023-06-10T00:51:32;20.50;57.18
63202;DHT22;49296;48.188;11.566;2023-06-10T00:54:00;20.50;57.17
63202;DHT22;49296;48.188;11.566;2023-06-10T00:56:27;20.44;57.27
63202;DHT22;49296;48.188;11.566;2023-06-10T00:58:54;20.41;57.43
63202;DHT22;49296;48.188;11.566;2023-06-10T01:01:21;20.41;57.55
63202;DHT22;49296;48.188;11.566;2023-06-10T01:03:47;20.46;57.45
63202;DHT22;49296;48.188;11.566;2023-06-10T01:06:19;20.46;57.38
63202;DHT22;49296;48.188;11.566;2023-06-10T01:08:54;20.43;57.46
63202;DHT22;49296;48.188;11.566;2023-06-10T01:11:28;20.30;57.76
63202;DHT22;49296;48.188;11.566;2023-06-10T01:13:58;20.37;57.78
63202;DHT22;49296;48.188;11.566;2023-06-10T01:16:25;20.36;57.78
63202;DHT22;49296;48.188;11.566;2023-06-10T01:18:51;20.36;57.89
63202;DHT22;49296;48.188;11.566;2023-06-10T01:24:43;20.23;58.22
63202;DHT22;49296;48.188;11.566;2023-06-10T01:27:15;20.09;58.70
63202;DHT22;49296;48.188;11.566;2023-06-10T01:29:51;20.05;58.84
63202;DHT22;49296;48.188;11.566;2023-06-10T01:32:26;20.09;58.76
63202;DHT22;49296;48.188;11.566;2023-06-10T01:34:54;20.16;58.80
63202;DHT22;49296;48.188;11.566;2023-06-10T01:37:23;20.16;58.69
63202;DHT22;49296;48.188;11.566;2023-06-10T01:39:55;20.13;58.74
63202;DHT22;49296;48.188;11.566;2023-06-10T01:42:27;20.08;59.04
63202;DHT22;49296;48.188;11.566;2023-06-10T01:44:54;19.99;59.29
63202;DHT22;49296;48.188;11.566;2023-06-10T01:47:21;19.82;59.81
63202;DHT22;49296;48.188;11.566;2023-06-10T01:49:48;19.57;60.46
63202;DHT22;49296;48.188;11.566;2023-06-10T01:52:14;19.61;60.48
63202;DHT22;49296;48.188;11.566;2023-06-10T01:54:41;19.54;60.59
63202;DHT22;49296;48.188;11.566;2023-06-10T01:57:10;19.51;60.74
63202;DHT22;49296;48.188;11.566;2023-06-10T01:59:37;19.54;60.78
63202;DHT22;49296;48.188;11.566;2023-06-10T02:02:04;19.57;60.82
63202;DHT22;49296;48.188;11.566;2023-06-10T02:04:30;19.43;61.07
63202;DHT22;49296;48.188;11.566;2023-06-10T02:06:57;19.40;61.26
63202;DHT22;49296;48.188;11.566;2023-06-10T02:09:25;19.43;61.23
63202;DHT22;49296;48.188;11.566;2023-06-10T02:11:51;19.56;61.11
63202;DHT22;49296;48.188;11.566;2023-06-10T02:14:19;19.61;60.92
63202;DHT22;49296;48.188;11.566;2023-06-10T02:16:46;19.61;60.87
63202;DHT22;49296;48.188;11.566;2023-06-10T02:19:13;19.64;60.90
63202;DHT22;49296;48.188;11.566;2023-06-10T02:21:39;19.58;61.03
63202;DHT22;49296;48.188;11.566;2023-06-10T02:24:07;19.49;61.38
63202;DHT22;49296;48.188;11.566;2023-06-10T02:26:33;19.46;61.48
63202;DHT22;49296;48.188;11.566;2023-06-10T02:29:00;19.51;61.41
63202;DHT22;49296;48.188;11.566;2023-06-10T02:31:28;19.53;61.43
63202;DHT22;49296;48.188;11.566;2023-06-10T02:33:55;19.54;61.40
63202;DHT22;49296;48.188;11.566;2023-06-10T02:36:22;19.53;61.42
63202;DHT22;49296;48.188;11.566;2023-06-10T02:38:49;19.58;61.19
63202;DHT22;49296;48.188;11.566;2023-06-10T02:41:16;19.56;61.20
63202;DHT22;49296;48.188;11.566;2023-06-10T02:43:42;19.56;61.28
63202;DHT22;49296;48.188;11.566;2023-06-10T02:46:09;19.53;61.34
63202;DHT22;49296;48.188;11.566;2023-06-10T02:48:42;19.56;61.27
63202;DHT22;49296;48.188;11.566;2023-06-10T02:51:09;19.53;61.33
63202;DHT22;49296;48.188;11.566;2023-06-10T02:53:36;19.56;61.37
63202;DHT22;49296;48.188;11.566;2023-06-10T02:56:03;19.54;61.28
63202;DHT22;49296;48.188;11.566;2023-06-10T02:58:29;19.53;61.45
63202;DHT22;49296;48.188;11.566;2023-06-10T03:00:56;19.51;61.46
63202;DHT22;49296;48.188;11.566;2023-06-10T03:03:23;19.43;61.59
63202;DHT22;49296;48.188;11.566;2023-06-10T03:05:52;19.37;61.58
63202;DHT22;49296;48.188;11.566;2023-06-10T03:08:19;19.32;61.82
63202;DHT22;49296;48.188;11.566;2023-06-10T03:10:45;19.25;61.95
63202;DHT22;49296;48.188;11.566;2023-06-10T03:13:12;19.19;62.02
63202;DHT22;49296;48.188;11.566;2023-06-10T03:15:39;19.22;61.93
63202;DHT22;49296;48.188;11.566;2023-06-10T03:18:07;19.15;62.10
63202;DHT22;49296;48.188;11.566;2023-06-10T03:20:33;19.08;62.43
63202;DHT22;49296;48.188;11.566;2023-06-10T03:23:05;19.04;62.47
63202;DHT22;49296;48.188;11.566;2023-06-10T03:25:32;18.97;62.58
63202;DHT22;49296;48.188;11.566;2023-06-10T03:27:59;18.97;62.77
63202;DHT22;49296;48.188;11.566;2023-06-10T03:30:26;18.94;62.89
63202;DHT22;49296;48.188;11.566;2023-06-10T03:32:53;18.95;63.00
63202;DHT22;49296;48.188;11.566;2023-06-10T03:35:20;18.92;63.04
63202;DHT22;49296;48.188;11.566;2023-06-10T03:37:47;18.94;63.07
63202;DHT22;49296;48.188;11.566;2023-06-10T03:40:15;18.97;63.16
63202;DHT22;49296;48.188;11.566;2023-06-10T03:42:42;18.89;63.24
63202;DHT22;49296;48.188;11.566;2023-06-10T03:45:09;18.92;63.26
63202;DHT22;49296;48.188;11.566;2023-06-10T03:47:37;18.85;63.52
63202;DHT22;49296;48.188;11.566;2023-06-10T03:50:06;18.87;63.65
63202;DHT22;49296;48.188;11.566;2023-06-10T03:52:33;18.92;63.55
63202;DHT22;49296;48.188;11.566;2023-06-10T03:55:00;18.83;63.81
63202;DHT22;49296;48.188;11.566;2023-06-10T03:57:28;18.81;63.96
63202;DHT22;49296;48.188;11.566;2023-06-10T03:59:54;18.85;63.97
63202;DHT22;49296;48.188;11.566;2023-06-10T04:02:21;18.84;64.07
63202;DHT22;49296;48.188;11.566;2023-06-10T04:04:48;18.91;63.93
63202;DHT22;49296;48.188;11.566;2023-06-10T04:07:16;18.92;64.06
63202;DHT22;49296;48.188;11.566;2023-06-10T04:09:44;18.91;64.01
63202;DHT22;49296;48.188;11.566;2023-06-10T04:12:12;18.94;64.00
63202;DHT22;49296;48.188;11.566;2023-06-10T04:14:41;18.91;64.17
63202;DHT22;49296;48.188;11.566;2023-06-10T04:17:08;18.83;64.39
63202;DHT22;49296;48.188;11.566;2023-06-10T04:19:35;18.84;64.52
63202;DHT22;49296;48.188;11.566;2023-06-10T04:22:02;18.78;64.63
63202;DHT22;49296;48.188;11.566;2023-06-10T04:24:29;18.77;64.85
63202;DHT22;49296;48.188;11.566;2023-06-10T04:26:55;18.80;64.92
63202;DHT22;49296;48.188;11.566;2023-06-10T04:29:22;18.80;64.96
63202;DHT22;49296;48.188;11.566;2023-06-10T04:31:50;18.84;64.91
63202;DHT22;49296;48.188;11.566;2023-06-10T04:34:17;18.77;65.22
63202;DHT22;49296;48.188;11.566;2023-06-10T04:36:44;18.87;65.11
63202;DHT22;49296;48.188;11.566;2023-06-10T04:39:10;18.88;65.18
63202;DHT22;49296;48.188;11.566;2023-06-10T04:41:37;18.95;65.00
63202;DHT22;49296;48.188;11.566;2023-06-10T04:44:04;18.98;64.99
63202;DHT22;49296;48.188;11.566;2023-06-10T04:46:31;19.01;65.13
63202;DHT22;49296;48.188;11.566;2023-06-10T04:48:59;18.97;65.29
63202;DHT22;49296;48.188;11.566;2023-06-10T04:51:25;18.98;65.37
63202;DHT22;49296;48.188;11.566;2023-06-10T04:53:52;19.05;65.45
63202;DHT22;49296;48.188;11.566;2023-06-10T04:56:19;19.09;65.34
63202;DHT22;49296;48.188;11.566;2023-06-10T04:58:45;19.16;65.28
63202;DHT22;49296;48.188;11.566;2023-06-10T05:01:12;19.25;65.23
63202;DHT22;49296;48.188;11.566;2023-06-10T05:03:39;19.12;65.85
63202;DHT22;49296;48.188;11.566;2023-06-10T05:06:07;19.20;65.59
63202;DHT22;49296;48.188;11.566;2023-06-10T05:08:33;19.22;65.64
63202;DHT22;49296;48.188;11.566;2023-06-10T05:11:00;19.16;66.04
63202;DHT22;49296;48.188;11.566;2023-06-10T05:13:27;19.11;66.22
63202;DHT22;49296;48.188;11.566;2023-06-10T05:15:53;18.99;66.58
63202;DHT22;49296;48.188;11.566;2023-06-10T05:18:20;18.89;66.91
63202;DHT22;49296;48.188;11.566;2023-06-10T05:20:47;18.99;66.83
63202;DHT22;49296;48.188;11.566;2023-06-10T05:23:16;19.09;66.65
63202;DHT22;49296;48.188;11.566;2023-06-10T05:25:42;19.23;66.35
63202;DHT22;49296;48.188;11.566;2023-06-10T05:28:09;19.27;66.46
63202;DHT22;49296;48.188;11.566;2023-06-10T05:30:36;19.33;66.27
63202;DHT22;49296;48.188;11.566;2023-06-10T05:33:03;19.36;66.39
63202;DHT22;49296;48.188;11.566;2023-06-10T05:35:30;19.42;66.55
63202;DHT22;49296;48.188;11.566;2023-06-10T05:37:56;19.51;66.34
63202;DHT22;49296;48.188;11.566;2023-06-10T05:40:24;19.50;66.54
63202;DHT22;49296;48.188;11.566;2023-06-10T05:42:51;19.50;66.47
63202;DHT22;49296;48.188;11.566;2023-06-10T05:45:17;19.60;66.24
63202;DHT22;49296;48.188;11.566;2023-06-10T05:47:44;19.66;66.19
63202;DHT22;49296;48.188;11.566;2023-06-10T05:50:11;19.67;66.15
63202;DHT22;49296;48.188;11.566;2023-06-10T05:52:37;19.74;65.99
63202;DHT22;49296;48.188;11.566;2023-06-10T05:55:06;19.85;65.72
63202;DHT22;49296;48.188;11.566;2023-06-10T05:57:34;19.54;66.57
63202;DHT22;49296;48.188;11.566;2023-06-10T06:00:00;19.77;66.15
63202;DHT22;49296;48.188;11.566;2023-06-10T06:02:27;19.77;66.10
63202;DHT22;49296;48.188;11.566;2023-06-10T06:04:54;19.78;66.01
63202;DHT22;49296;48.188;11.566;2023-06-10T06:07:20;19.82;65.87
63202;DHT22;49296;48.188;11.566;2023-06-10T06:09:47;19.92;65.80
63202;DHT22;49296;48.188;11.566;2023-06-10T06:12:14;20.02;65.48
63202;DHT22;49296;48.188;11.566;2023-06-10T06:14:42;20.06;65.32
63202;DHT22;49296;48.188;11.566;2023-06-10T06:17:10;20.08;65.50
63202;DHT22;49296;48.188;11.566;2023-06-10T06:19:36;20.04;65.31
63202;DHT22;49296;48.188;11.566;2023-06-10T06:22:04;20.01;65.48
63202;DHT22;49296;48.188;11.566;2023-06-10T06:24:30;20.12;65.32
63202;DHT22;49296;48.188;11.566;2023-06-10T06:26:57;20.18;65.16
63202;DHT22;49296;48.188;11.566;2023-06-10T06:29:24;20.20;64.72
63202;DHT22;49296;48.188;11.566;2023-06-10T06:31:52;20.23;64.80
63202;DHT22;49296;48.188;11.566;2023-06-10T06:34:18;20.20;64.51
63202;DHT22;49296;48.188;11.566;2023-06-10T06:36:45;20.23;64.48
63202;DHT22;49296;48.188;11.566;2023-06-10T06:39:12;20.28;64.46
63202;DHT22;49296;48.188;11.566;2023-06-10T06:41:39;20.33;64.39
63202;DHT22;49296;48.188;11.566;2023-06-10T06:44:05;20.30;64.51
63202;DHT22;49296;48.188;11.566;2023-06-10T06:46:32;20.36;64.36
63202;DHT22;49296;48.188;11.566;2023-06-10T06:49:00;20.40;64.05
63202;DHT22;49296;48.188;11.566;2023-06-10T06:51:26;20.32;64.06
63202;DHT22;49296;48.188;11.566;2023-06-10T06:53:53;20.40;63.80
63202;DHT22;49296;48.188;11.566;2023-06-10T06:56:23;20.44;63.87
63202;DHT22;49296;48.188;11.566;2023-06-10T06:58:50;20.56;63.57
63202;DHT22;49296;48.188;11.566;2023-06-10T07:01:16;20.57;63.39
63202;DHT22;49296;48.188;11.566;2023-06-10T07:03:43;20.71;63.51
63202;DHT22;49296;48.188;11.566;2023-06-10T07:06:12;20.70;63.54
63202;DHT22;49296;48.188;11.566;2023-06-10T07:08:38;20.81;63.17
63202;DHT22;49296;48.188;11.566;2023-06-10T07:11:05;20.87;62.41
63202;DHT22;49296;48.188;11.566;2023-06-10T07:13:32;20.81;62.18
63202;DHT22;49296;48.188;11.566;2023-06-10T07:15:58;20.91;61.90
63202;DHT22;49296;48.188;11.566;2023-06-10T07:18:25;20.92;62.17
63202;DHT22;49296;48.188;11.566;2023-06-10T07:20:52;20.96;61.84
63202;DHT22;49296;48.188;11.566;2023-06-10T07:23:20;20.88;62.13
63202;DHT22;49296;48.188;11.566;2023-06-10T07:25:46;20.81;62.07
63202;DHT22;49296;48.188;11.566;2023-06-10T07:28:13;20.87;62.34
63202;DHT22;49296;48.188;11.566;2023-06-10T07:30:40;20.87;62.05
63202;DHT22;49296;48.188;11.566;2023-06-10T07:33:06;20.94;61.68
63202;DHT22;49296;48.188;11.566;2023-06-10T07:35:33;21.02;61.65
63202;DHT22;49296;48.188;11.566;2023-06-10T07:38:00;20.96;61.36
63202;DHT22;49296;48.188;11.566;2023-06-10T07:40:28;20.96;60.83
63202;DHT22;49296;48.188;11.566;2023-06-10T07:42:55;20.95;60.72
63202;DHT22;49296;48.188;11.566;2023-06-10T07:45:22;20.71;61.34
63202;DHT22;49296;48.188;11.566;2023-06-10T07:47:48;20.74;61.50
63202;DHT22;49296;48.188;11.566;2023-06-10T07:50:15;20.94;61.06
63202;DHT22;49296;48.188;11.566;2023-06-10T07:52:42;21.03;61.04
63202;DHT22;49296;48.188;11.566;2023-06-10T07:55:09;20.64;61.31
63202;DHT22;49296;48.188;11.566;2023-06-10T07:57:37;20.75;60.99
63202;DHT22;49296;48.188;11.566;2023-06-10T08:00:05;20.91;60.71
63202;DHT22;49296;48.188;11.566;2023-06-10T08:02:32;21.08;60.91
63202;DHT22;49296;48.188;11.566;2023-06-10T08:04:59;21.25;60.59
63202;DHT22;49296;48.188;11.566;2023-06-10T08:07:25;21.26;60.65
63202;DHT22;49296;48.188;11.566;2023-06-10T08:09:53;21.44;60.27
63202;DHT22;49296;48.188;11.566;2023-06-10T08:12:19;21.39;59.65
63202;DHT22;49296;48.188;11.566;2023-06-10T08:14:48;21.43;60.07
63202;DHT22;49296;48.188;11.566;2023-06-10T08:17:14;21.54;59.75
63202;DHT22;49296;48.188;11.566;2023-06-10T08:19:41;21.44;60.54
63202;DHT22;49296;48.188;11.566;2023-06-10T08:22:08;21.58;60.53
63202;DHT22;49296;48.188;11.566;2023-06-10T08:24:35;21.54;59.51
63202;DHT22;49296;48.188;11.566;2023-06-10T08:27:02;21.58;59.58
63202;DHT22;49296;48.188;11.566;2023-06-10T08:29:29;21.61;59.40
63202;DHT22;49296;48.188;11.566;2023-06-10T08:31:58;21.75;59.54
63202;DHT22;49296;48.188;11.566;2023-06-10T08:34:24;21.78;58.03
63202;DHT22;49296;48.188;11.566;2023-06-10T08:36:51;21.81;58.11
63202;DHT22;49296;48.188;11.566;2023-06-10T08:39:23;21.81;58.00
63202;DHT22;49296;48.188;11.566;2023-06-10T08:42:00;21.75;57.86
63202;DHT22;49296;48.188;11.566;2023-06-10T08:44:28;21.94;56.85
63202;DHT22;49296;48.188;11.566;2023-06-10T08:46:56;22.08;57.14
63202;DHT22;49296;48.188;11.566;2023-06-10T08:49:27;22.09;57.42
63202;DHT22;49296;48.188;11.566;2023-06-10T08:51:59;22.16;58.26
63202;DHT22;49296;48.188;11.566;2023-06-10T08:54:28;22.16;58.54
63202;DHT22;49296;48.188;11.566;2023-06-10T08:56:57;22.09;58.45
63202;DHT22;49296;48.188;11.566;2023-06-10T08:59:25;22.22;58.80
63202;DHT22;49296;48.188;11.566;2023-06-10T09:01:53;22.39;57.91
63202;DHT22;49296;48.188;11.566;2023-06-10T09:04:20;22.51;57.39
63202;DHT22;49296;48.188;11.566;2023-06-10T09:06:49;22.67;57.24
63202;DHT22;49296;48.188;11.566;2023-06-10T09:09:16;22.43;57.96
63202;DHT22;49296;48.188;11.566;2023-06-10T09:11:43;22.36;58.06
63202;DHT22;49296;48.188;11.566;2023-06-10T09:14:09;22.44;57.91
63202;DHT22;49296;48.188;11.566;2023-06-10T09:16:38;22.36;57.66
63202;DHT22;49296;48.188;11.566;2023-06-10T09:19:04;22.47;57.79
63202;DHT22;49296;48.188;11.566;2023-06-10T09:21:33;22.53;57.43
63202;DHT22;49296;48.188;11.566;2023-06-10T09:24:02;22.60;56.94
63202;DHT22;49296;48.188;11.566;2023-06-10T09:26:30;22.47;57.21
63202;DHT22;49296;48.188;11.566;2023-06-10T09:29:01;22.58;57.43
63202;DHT22;49296;48.188;11.566;2023-06-10T09:31:29;22.46;56.34
63202;DHT22;49296;48.188;11.566;2023-06-10T09:34:05;22.43;56.24
63202;DHT22;49296;48.188;11.566;2023-06-10T09:36:35;22.54;56.26
63202;DHT22;49296;48.188;11.566;2023-06-10T09:39:04;22.72;56.50
63202;DHT22;49296;48.188;11.566;2023-06-10T09:41:32;22.85;55.02
63202;DHT22;49296;48.188;11.566;2023-06-10T09:43:59;22.92;55.15
63202;DHT22;49296;48.188;11.566;2023-06-10T09:46:35;23.08;55.16
63202;DHT22;49296;48.188;11.566;2023-06-10T09:49:02;23.10;54.92
63202;DHT22;49296;48.188;11.566;2023-06-10T09:51:28;23.15;54.73
63202;DHT22;49296;48.188;11.566;2023-06-10T09:53:55;23.02;55.43
63202;DHT22;49296;48.188;11.566;2023-06-10T09:56:32;23.08;55.14
63202;DHT22;49296;48.188;11.566;2023-06-10T09:58:59;23.16;55.76
63202;DHT22;49296;48.188;11.566;2023-06-10T10:01:26;23.36;55.06
63202;DHT22;49296;48.188;11.566;2023-06-10T10:03:52;23.44;55.06
63202;DHT22;49296;48.188;11.566;2023-06-10T10:06:20;23.57;53.52
63202;DHT22;49296;48.188;11.566;2023-06-10T10:08:48;23.71;53.75
63202;DHT22;49296;48.188;11.566;2023-06-10T10:11:16;23.77;53.61
63202;DHT22;49296;48.188;11.566;2023-06-10T10:13:45;23.94;53.47
63202;DHT22;49296;48.188;11.566;2023-06-10T10:16:16;23.99;53.48
63202;DHT22;49296;48.188;11.566;2023-06-10T10:18:46;23.79;52.96
63202;DHT22;49296;48.188;11.566;2023-06-10T10:21:15;23.84;53.39
63202;DHT22;49296;48.188;11.566;2023-06-10T10:23:48;23.85;52.94
63202;DHT22;49296;48.188;11.566;2023-06-10T10:26:21;23.71;52.90
63202;DHT22;49296;48.188;11.566;2023-06-10T10:28:55;23.78;52.50
63202;DHT22;49296;48.188;11.566;2023-06-10T10:31:24;23.85;52.54
63202;DHT22;49296;48.188;11.566;2023-06-10T10:33:54;23.95;52.94
63202;DHT22;49296;48.188;11.566;2023-06-10T10:36:23;24.10;52.09
63202;DHT22;49296;48.188;11.566;2023-06-10T10:38:50;24.09;51.80
63202;DHT22;49296;48.188;11.566;2023-06-10T10:41:18;24.17;50.60
63202;DHT22;49296;48.188;11.566;2023-06-10T10:43:46;24.26;51.10
63202;DHT22;49296;48.188;11.566;2023-06-10T10:46:16;24.05;52.09
63202;DHT22;49296;48.188;11.566;2023-06-10T10:48:44;24.27;51.95
63202;DHT22;49296;48.188;11.566;2023-06-10T10:51:11;24.41;50.82
63202;DHT22;49296;48.188;11.566;2023-06-10T10:53:38;24.54;50.90
63202;DHT22;49296;48.188;11.566;2023-06-10T10:56:05;24.58;50.76
63202;DHT22;49296;48.188;11.566;2023-06-10T10:58:33;24.46;52.13
63202;DHT22;49296;48.188;11.566;2023-06-10T11:01:00;24.65;51.33
63202;DHT22;49296;48.188;11.566;2023-06-10T11:03:42;24.53;51.23
63202;DHT22;49296;48.188;11.566;2023-06-10T11:06:12;24.30;51.33
63202;DHT22;49296;48.188;11.566;2023-06-10T11:08:46;24.16;51.97
63202;DHT22;49296;48.188;11.566;2023-06-10T11:11:22;23.95;52.08
63202;DHT22;49296;48.188;11.566;2023-06-10T11:13:59;23.86;51.35
63202;DHT22;49296;48.188;11.566;2023-06-10T11:16:38;23.70;52.01
63202;DHT22;49296;48.188;11.566;2023-06-10T11:19:07;23.88;52.91
63202;DHT22;49296;48.188;11.566;2023-06-10T11:21:57;24.01;52.83
63202;DHT22;49296;48.188;11.566;2023-06-10T11:24:24;23.65;53.55
63202;DHT22;49296;48.188;11.566;2023-06-10T11:26:52;23.74;53.30
63202;DHT22;49296;48.188;11.566;2023-06-10T11:29:19;23.90;53.24
63202;DHT22;49296;48.188;11.566;2023-06-10T11:31:49;24.13;52.56
63202;DHT22;49296;48.188;11.566;2023-06-10T11:34:22;24.20;52.58
63202;DHT22;49296;48.188;11.566;2023-06-10T11:36:51;24.30;51.74
63202;DHT22;49296;48.188;11.566;2023-06-10T11:39:21;24.37;51.78
63202;DHT22;49296;48.188;11.566;2023-06-10T11:41:51;24.47;51.93
63202;DHT22;49296;48.188;11.566;2023-06-10T11:44:20;24.53;50.32
63202;DHT22;49296;48.188;11.566;2023-06-10T11:46:48;24.49;50.36
63202;DHT22;49296;48.188;11.566;2023-06-10T11:49:17;24.29;50.80
63202;DHT22;49296;48.188;11.566;2023-06-10T11:51:45;24.58;50.86
63202;DHT22;49296;48.188;11.566;2023-06-10T11:54:17;24.51;51.19
63202;DHT22;49296;48.188;11.566;2023-06-10T11:56:44;24.49;51.96
63202;DHT22;49296;48.188;11.566;2023-06-10T11:59:10;24.40;52.18
63202;DHT22;49296;48.188;11.566;2023-06-10T12:01:38;24.16;52.37
63202;DHT22;49296;48.188;11.566;2023-06-10T12:04:08;23.94;52.90
63202;DHT22;49296;48.188;11.566;2023-06-10T12:06:40;24.02;53.03
63202;DHT22;49296;48.188;11.566;2023-06-10T12:09:13;24.24;52.93
63202;DHT22;49296;48.188;11.566;2023-06-10T12:11:39;24.30;52.06
63202;DHT22;49296;48.188;11.566;2023-06-10T12:14:06;24.33;51.78
63202;DHT22;49296;48.188;11.566;2023-06-10T12:16:33;24.47;51.83
63202;DHT22;49296;48.188;11.566;2023-06-10T12:19:03;24.61;51.28
63202;DHT22;49296;48.188;11.566;2023-06-10T12:21:31;24.89;50.14
63202;DHT22;49296;48.188;11.566;2023-06-10T12:24:02;25.23;50.16
63202;DHT22;49296;48.188;11.566;2023-06-10T12:26:41;25.26;49.70
63202;DHT22;49296;48.188;11.566;2023-06-10T12:29:18;25.15;49.18
63202;DHT22;49296;48.188;11.566;2023-06-10T12:31:56;25.20;48.99
63202;DHT22;49296;48.188;11.566;2023-06-10T12:34:35;25.16;48.70
63202;DHT22;49296;48.188;11.566;2023-06-10T12:37:03;25.19;48.35
63202;DHT22;49296;48.188;11.566;2023-06-10T12:39:30;25.18;48.92
63202;DHT22;49296;48.188;11.566;2023-06-10T12:41:59;25.40;49.62
63202;DHT22;49296;48.188;11.566;2023-06-10T12:44:32;25.22;49.53
63202;DHT22;49296;48.188;11.566;2023-06-10T12:47:00;24.95;50.18
63202;DHT22;49296;48.188;11.566;2023-06-10T12:49:26;24.92;50.32
63202;DHT22;49296;48.188;11.566;2023-06-10T12:51:53;24.96;49.61
63202;DHT22;49296;48.188;11.566;2023-06-10T12:54:20;25.12;48.29
63202;DHT22;49296;48.188;11.566;2023-06-10T12:56:47;25.36;48.27
63202;DHT22;49296;48.188;11.566;2023-06-10T12:59:15;25.74;50.00
63202;DHT22;49296;48.188;11.566;2023-06-10T13:01:42;25.58;51.08
63202;DHT22;49296;48.188;11.566;2023-06-10T13:04:08;26.20;49.91
63202;DHT22;49296;48.188;11.566;2023-06-10T13:06:35;26.77;49.54
63202;DHT22;49296;48.188;11.566;2023-06-10T13:09:05;26.92;48.01
63202;DHT22;49296;48.188;11.566;2023-06-10T13:11:32;26.75;48.55
63202;DHT22;49296;48.188;11.566;2023-06-10T13:14:00;26.61;49.58
63202;DHT22;49296;48.188;11.566;2023-06-10T13:16:29;26.95;49.27
63202;DHT22;49296;48.188;11.566;2023-06-10T13:18:55;27.06;48.36
63202;DHT22;49296;48.188;11.566;2023-06-10T13:21:22;27.48;47.25
63202;DHT22;49296;48.188;11.566;2023-06-10T13:23:49;27.89;46.69
63202;DHT22;49296;48.188;11.566;2023-06-10T13:26:16;27.92;46.14
63202;DHT22;49296;48.188;11.566;2023-06-10T13:28:42;28.19;45.07
63202;DHT22;49296;48.188;11.566;2023-06-10T13:31:09;28.26;44.63
63202;DHT22;49296;48.188;11.566;2023-06-10T13:33:37;28.51;44.34
63202;DHT22;49296;48.188;11.566;2023-06-10T13:36:05;28.61;43.47
63202;DHT22;49296;48.188;11.566;2023-06-10T13:38:31;28.64;43.56
63202;DHT22;49296;48.188;11.566;2023-06-10T13:40:58;28.76;43.93
63202;DHT22;49296;48.188;11.566;2023-06-10T13:43:25;29.10;42.69
63202;DHT22;49296;48.188;11.566;2023-06-10T13:45:51;29.20;42.50
63202;DHT22;49296;48.188;11.566;2023-06-10T13:48:18;29.05;42.14
63202;DHT22;49296;48.188;11.566;2023-06-10T13:50:47;29.65;41.22
63202;DHT22;49296;48.188;11.566;2023-06-10T13:53:13;29.93;41.20
63202;DHT22;49296;48.188;11.566;2023-06-10T13:55:40;29.89;41.70
63202;DHT22;49296;48.188;11.566;2023-06-10T13:58:06;30.30;41.01
63202;DHT22;49296;48.188;11.566;2023-06-10T14:00:33;30.21;40.84
63202;DHT22;49296;48.188;11.566;2023-06-10T14:02:59;30.53;40.58
63202;DHT22;49296;48.188;11.566;2023-06-10T14:05:26;30.53;39.78
63202;DHT22;49296;48.188;11.566;2023-06-10T14:07:54;30.54;39.57
63202;DHT22;49296;48.188;11.566;2023-06-10T14:10:21;30.57;40.06
63202;DHT22;49296;48.188;11.566;2023-06-10T14:12:47;31.04;39.25
63202;DHT22;49296;48.188;11.566;2023-06-10T14:15:14;31.45;38.81
63202;DHT22;49296;48.188;11.566;2023-06-10T14:17:41;31.50;39.73
63202;DHT22;49296;48.188;11.566;2023-06-10T14:20:08;31.99;39.25
63202;DHT22;49296;48.188;11.566;2023-06-10T14:22:35;31.24;39.33
63202;DHT22;49296;48.188;11.566;2023-06-10T14:25:03;31.29;39.08
63202;DHT22;49296;48.188;11.566;2023-06-10T14:27:30;30.98;39.55
63202;DHT22;49296;48.188;11.566;2023-06-10T14:29:57;31.67;37.84
63202;DHT22;49296;48.188;11.566;2023-06-10T14:32:23;31.75;37.00
63202;DHT22;49296;48.188;11.566;2023-06-10T14:34:50;31.88;37.39
63202;DHT22;49296;48.188;11.566;2023-06-10T14:37:17;32.17;37.38
63202;DHT22;49296;48.188;11.566;2023-06-10T14:39:43;32.09;37.70
63202;DHT22;49296;48.188;11.566;2023-06-10T14:42:11;32.01;37.45
63202;DHT22;49296;48.188;11.566;2023-06-10T14:44:38;32.31;37.04
63202;DHT22;49296;48.188;11.566;2023-06-10T14:47:05;32.01;36.05
63202;DHT22;49296;48.188;11.566;2023-06-10T14:49:31;31.07;37.66
63202;DHT22;49296;48.188;11.566;2023-06-10T14:51:58;30.88;38.06
63202;DHT22;49296;48.188;11.566;2023-06-10T14:54:25;30.48;38.79
63202;DHT22;49296;48.188;11.566;2023-06-10T14:56:51;30.58;38.76
63202;DHT22;49296;48.188;11.566;2023-06-10T14:59:19;30.98;38.50
63202;DHT22;49296;48.188;11.566;2023-06-10T15:01:46;31.16;37.96
63202;DHT22;49296;48.188;11.566;2023-06-10T15:04:13;31.85;37.09
63202;DHT22;49296;48.188;11.566;2023-06-10T15:06:39;31.92;37.53
63202;DHT22;49296;48.188;11.566;2023-06-10T15:09:07;32.05;37.89
63202;DHT22;49296;48.188;11.566;2023-06-10T15:11:33;32.58;37.56
63202;DHT22;49296;48.188;11.566;2023-06-10T15:14:00;32.61;37.27
63202;DHT22;49296;48.188;11.566;2023-06-10T15:16:28;32.48;37.51
63202;DHT22;49296;48.188;11.566;2023-06-10T15:18:55;32.82;37.10
63202;DHT22;49296;48.188;11.566;2023-06-10T15:21:21;32.60;37.17
63202;DHT22;49296;48.188;11.566;2023-06-10T15:23:48;32.27;37.17